Time;durP1;ratioP1;P1;durP2;ratioP2;P2;SDS_P1;SDS_P2;PMS_P1;PMS_P2;Temp;Humidity;BMP_temperature;BMP_pressure;BME280_temperature;BME280_humidity;BME280_pressure;Samples;Min_cycle;Max_cycle;Signal;HPM_P1;HPM_P2
2022/08/11 00:00:44;;;;;;;7.28;3.42;;;;;;;22.87;42.71;102100.88;4993117;28;20038;-67
2022/08/11 00:03:12;;;;;;;5.60;3.30;;;;;;;22.77;43.02;102112.78;4993029;28;20026;-67
2022/08/11 00:05:51;;;;;;;7.20;3.70;;;;;;;22.72;43.27;102112.88;4993320;28;20019;-66
2022/08/11 00:08:21;;;;;;;7.70;3.40;;;;;;;22.59;43.88;102114.91;4994287;28;20027;-67
2022/08/11 00:10:52;;;;;;;10.02;3.83;;;;;;;22.57;44.06;102110.47;4996523;28;20058;-66
2022/08/11 00:13:19;;;;;;;6.43;3.53;;;;;;;22.56;43.68;102112.28;4996756;28;20387;-67
2022/08/11 00:15:45;;;;;;;6.50;3.70;;;;;;;22.48;44.23;102112.44;4996423;28;20057;-67
2022/08/11 00:18:12;;;;;;;6.20;3.95;;;;;;;22.37;44.14;102103.66;4996351;28;20548;-67
2022/08/11 00:20:41;;;;;;;8.63;3.97;;;;;;;22.41;44.57;102104.50;4978925;28;20027;-67
2022/08/11 00:23:13;;;;;;;12.52;4.22;;;;;;;22.40;44.28;102102.72;4996588;28;20022;-67
2022/08/11 00:25:53;;;;;;;7.85;3.85;;;;;;;22.48;44.09;102107.06;4996316;28;20507;-67
2022/08/11 00:28:32;;;;;;;6.05;3.80;;;;;;;22.37;44.41;102109.03;4996195;28;20102;-67
2022/08/11 00:31:05;;;;;;;9.52;3.70;;;;;;;22.33;44.27;102109.13;4978975;28;20058;-67
2022/08/11 00:33:44;;;;;;;4.53;3.45;;;;;;;22.42;44.33;102103.56;4996183;28;20027;-66
2022/08/11 00:36:14;;;;;;;6.55;3.75;;;;;;;22.36;44.19;102109.97;4996023;28;20050;-66
2022/08/11 00:38:43;;;;;;;6.95;3.83;;;;;;;22.37;43.85;102108.16;4996087;28;20475;-67
2022/08/11 00:41:33;;;;;;;6.40;3.80;;;;;;;22.34;44.15;102106.41;4995862;28;20030;-66
2022/08/11 00:44:16;;;;;;;6.13;3.53;;;;;;;22.26;43.98;102105.66;4996075;28;20503;-67
2022/08/11 00:47:16;;;;;;;7.13;3.60;;;;;;;22.29;44.66;102102.91;4995807;28;20034;-67
2022/08/11 00:50:11;;;;;;;6.28;3.70;;;;;;;22.25;44.02;102104.75;4995478;28;20604;-67
2022/08/11 00:53:08;;;;;;;8.68;3.30;;;;;;;22.29;44.24;102110.09;4988886;28;20041;-67
2022/08/11 00:55:56;;;;;;;7.72;3.75;;;;;;;22.29;43.95;102110.97;4978457;28;20034;-67
2022/08/11 00:58:45;;;;;;;5.88;3.47;;;;;;;22.25;43.94;102103.88;4995609;28;20096;-67
2022/08/11 01:01:16;;;;;;;7.25;3.78;;;;;;;22.16;44.52;102095.97;4978280;28;20057;-67
2022/08/11 01:04:16;;;;;;;5.50;3.40;;;;;;;22.18;44.16;102099.50;4995479;28;20535;-67
2022/08/11 01:06:56;;;;;;;7.72;3.50;;;;;;;22.10;44.67;102101.41;4995387;28;20369;-66
2022/08/11 01:10:00;;;;;;;8.27;3.58;;;;;;;22.04;44.78;102101.53;4995517;28;20085;-67
2022/08/11 01:12:28;;;;;;;4.85;3.45;;;;;;;21.97;45.10;102096.25;4962485;28;20392;-66
2022/08/11 01:15:12;;;;;;;5.45;3.45;;;;;;;21.92;45.14;102094.53;4995155;28;20027;-67
2022/08/11 01:17:56;;;;;;;7.15;3.55;;;;;;;21.91;44.78;102099.03;4977740;28;20579;-67
2022/08/11 01:21:09;;;;;;;6.95;3.53;;;;;;;21.86;45.09;102103.59;4994720;28;20019;-67
2022/08/11 01:23:53;;;;;;;7.60;3.60;;;;;;;21.77;45.49;102103.75;4982489;28;20174;-67
2022/08/11 01:26:27;;;;;;;7.30;3.90;;;;;;;21.79;45.50;102103.72;4994891;28;20034;-66
2022/08/11 01:29:28;;;;;;;7.13;3.80;;;;;;;21.80;45.09;102111.78;4995355;28;20115;-67
2022/08/11 01:32:21;;;;;;;7.75;3.75;;;;;;;21.75;45.19;102108.25;4995428;28;20030;-67
2022/08/11 01:34:53;;;;;;;7.85;3.90;;;;;;;21.59;46.34;102110.31;4994926;28;20039;-67
2022/08/11 01:37:44;;;;;;;7.43;4.32;;;;;;;21.72;45.42;102119.97;4995115;28;20034;-67
2022/08/11 01:40:18;;;;;;;6.47;3.90;;;;;;;21.68;46.01;102120.94;4968078;28;20061;-66
2022/08/11 01:46:09;;;;;;;12.82;4.10;;;;;;;21.53;46.16;102110.38;4995559;28;20129;-67
2022/08/11 01:48:43;;;;;;;6.65;4.22;;;;;;;21.48;46.77;102112.25;4994701;28;20030;-66
2022/08/11 01:51:46;;;;;;;7.60;4.20;;;;;;;21.50;46.14;102107.75;4977549;28;20089;-66
2022/08/11 01:54:32;;;;;;;7.25;4.07;;;;;;;21.34;47.12;102111.56;4994885;28;20045;-67
2022/08/11 01:57:44;;;;;;;9.65;4.30;;;;;;;21.40;45.97;102109.66;4994722;28;20077;-66
2022/08/11 02:00:18;;;;;;;6.72;4.07;;;;;;;21.23;47.46;102104.47;4934429;29;20395;-67
2022/08/11 02:03:02;;;;;;;6.10;3.97;;;;;;;21.36;46.23;102109.72;4990362;28;20089;-67
2022/08/11 02:05:49;;;;;;;10.75;4.20;;;;;;;21.38;46.41;102110.63;4994412;28;20038;-67
2022/08/11 02:08:36;;;;;;;9.27;4.00;;;;;;;21.34;46.29;102109.75;4994347;28;20045;-66
2022/08/11 02:11:32;;;;;;;5.97;3.95;;;;;;;21.33;46.46;102115.16;4977070;28;20101;-67
2022/08/11 02:14:14;;;;;;;6.18;4.10;;;;;;;21.33;46.44;102104.41;4994357;28;20030;-67
2022/08/11 02:17:14;;;;;;;5.60;3.55;;;;;;;21.37;46.41;102108.81;4994326;28;20070;-66
2022/08/11 02:26:10;;;;;;;10.10;3.80;;;;;;;21.38;46.10;102119.56;4994328;28;20044;-66
2022/08/11 02:29:03;;;;;;;7.70;3.90;;;;;;;21.39;46.25;102115.06;4967247;28;20508;-67
2022/08/11 02:35:08;;;;;;;6.93;4.05;;;;;;;21.30;46.34;102109.78;4993863;28;20152;-67
2022/08/11 02:37:51;;;;;;;6.88;3.85;;;;;;;21.12;47.15;102110.94;4993882;28;20034;-67
2022/08/11 02:40:55;;;;;;;8.90;3.88;;;;;;;21.16;46.53;102105.50;4993941;28;20026;-67
2022/08/11 02:43:28;;;;;;;9.55;4.05;;;;;;;21.00;47.35;102102.09;4973284;28;20066;-67
2022/08/11 02:46:20;;;;;;;5.95;3.97;;;;;;;21.09;47.00;102102.91;4976629;28;20428;-66
2022/08/11 02:52:02;;;;;;;6.45;4.00;;;;;;;21.09;47.25;102103.78;4993858;28;20065;-66
2022/08/11 02:54:55;;;;;;;6.57;4.10;;;;;;;21.00;47.77;102096.72;4993731;28;20031;-66
2022/08/11 02:57:39;;;;;;;7.07;3.72;;;;;;;20.94;47.75;102106.66;4993675;28;20650;-66
2022/08/11 03:00:09;;;;;;;12.25;4.05;;;;;;;20.96;47.99;102108.41;4993817;28;20026;-66
2022/08/11 03:03:06;;;;;;;6.90;4.20;;;;;;;20.92;47.48;102111.16;4993692;28;20585;-67
2022/08/11 03:06:01;;;;;;;6.90;3.90;;;;;;;20.72;48.67;102101.53;4993439;28;20034;-67
2022/08/11 03:08:53;;;;;;;8.35;3.97;;;;;;;20.75;48.17;102101.50;4986340;28;20066;-66
2022/08/11 03:17:58;;;;;;;5.88;4.10;;;;;;;20.75;48.03;102106.00;4993913;28;20045;-66
2022/08/11 03:20:29;;;;;;;5.95;4.10;;;;;;;20.59;49.38;102105.25;4993558;28;20062;-66
2022/08/11 03:23:07;;;;;;;6.60;4.22;;;;;;;20.41;49.70;102102.72;4993349;28;20031;-66
2022/08/11 03:26:10;;;;;;;6.95;3.88;;;;;;;20.47;49.19;102106.25;4976150;28;20399;-67
2022/08/11 03:28:49;;;;;;;6.28;3.90;;;;;;;20.39;49.92;102108.13;4974040;28;20043;-66
2022/08/11 03:31:34;;;;;;;7.47;4.45;;;;;;;20.24;49.74;102106.47;4973959;28;20038;-66
2022/08/11 03:34:05;;;;;;;11.75;4.15;;;;;;;20.18;49.97;102102.97;4974034;28;20038;-66
2022/08/11 03:37:08;;;;;;;8.63;4.25;;;;;;;20.13;49.79;102113.75;4956638;28;20022;-66
2022/08/11 03:39:55;;;;;;;8.73;4.80;;;;;;;20.05;49.98;102109.34;4973973;28;20052;-66
2022/08/11 03:42:32;;;;;;;8.40;4.30;;;;;;;20.07;50.08;102111.09;4973921;28;20490;-66
2022/08/11 03:45:22;;;;;;;8.30;4.40;;;;;;;20.06;49.96;102111.13;4977302;28;20035;-66
2022/08/11 03:48:13;;;;;;;8.60;3.95;;;;;;;20.04;49.90;102111.09;4977703;28;20030;-66
2022/08/11 03:50:56;;;;;;;7.10;4.30;;;;;;;19.97;50.97;102112.09;4977606;28;20027;-66
2022/08/11 03:53:43;;;;;;;5.93;4.30;;;;;;;19.96;51.21;102107.63;4959901;28;20066;-66
2022/08/11 03:56:56;;;;;;;6.97;4.30;;;;;;;20.05;50.00;102106.66;4977503;28;20487;-66
2022/08/11 03:59:39;;;;;;;;;;;;;;;20.14;48.84;102104.78;4918273;28;20043;-66
2022/08/11 04:02:14;;;;;;;7.47;4.30;;;;;;;20.06;50.40;102100.38;4977285;28;19914;-67
2022/08/11 04:05:23;;;;;;;9.35;4.43;;;;;;;20.15;49.59;102102.97;4960283;28;20033;-66
2022/08/11 04:08:19;;;;;;;7.72;4.30;;;;;;;20.19;50.07;102102.94;4959878;28;20039;-66
2022/08/11 04:11:00;;;;;;;8.80;4.50;;;;;;;19.99;50.69;102100.41;4975910;28;20035;-66
2022/08/11 04:13:53;;;;;;;10.77;4.53;;;;;;;19.89;51.00;102100.53;4977304;28;20022;-66
2022/08/11 04:16:52;;;;;;;7.32;4.53;;;;;;;19.92;50.23;102100.50;4959308;28;20386;-67
2022/08/11 04:19:44;;;;;;;9.65;5.05;;;;;;;19.81;50.97;102097.00;4976820;28;20408;-66
2022/08/11 04:22:39;;;;;;;11.98;7.38;;;;;;;19.84;50.62;102097.88;4977067;28;20031;-66
2022/08/11 04:25:31;;;;;;;10.32;5.10;;;;;;;19.82;51.48;102105.03;4959608;28;20440;-66
2022/08/11 04:28:33;;;;;;;8.30;4.43;;;;;;;19.84;50.32;102100.56;4991015;28;20053;-67
2022/08/11 04:31:25;;;;;;;15.55;4.80;;;;;;;19.79;50.38;102105.06;4996251;28;20038;-66
2022/08/11 04:34:07;;;;;;;6.53;4.43;;;;;;;19.76;51.22;102107.75;4996140;28;20030;-67
2022/08/11 04:40:36;;;;;;;10.27;6.40;;;;;;;19.67;51.10;102103.34;4996277;28;20044;-66
2022/08/11 04:43:20;;;;;;;8.68;4.82;;;;;;;19.62;51.76;102105.19;4978892;28;20026;-67
2022/08/11 04:46:26;;;;;;;9.30;4.70;;;;;;;19.63;51.59;102106.06;4995915;28;20034;-67
2022/08/11 05:02:05;;;;;;;10.93;5.10;;;;;;;19.58;52.45;102103.38;4996010;28;20053;-66
2022/08/11 05:07:48;;;;;;;9.93;5.35;;;;;;;19.74;52.33;102096.13;4995938;28;20086;-66
2022/08/11 05:10:37;;;;;;;9.43;5.55;;;;;;;19.79;52.33;102107.75;4995655;28;20030;-66
2022/08/11 05:35:54;;;;;;;9.10;5.72;;;;;;;20.65;50.83;102115.06;4980791;28;20391;-67
2022/08/11 05:58:12;;;;;;;11.90;6.07;;;;;;;21.67;48.38;102108.41;4995046;28;20074;-67
2022/08/11 06:00:42;;;;;;;11.10;5.97;;;;;;;21.71;48.18;102117.28;4994509;28;20022;-66
2022/08/11 06:03:09;;;;;;;11.43;6.07;;;;;;;21.77;48.47;102116.31;4994605;28;20026;-67
2022/08/11 06:05:43;;;;;;;11.20;5.70;;;;;;;21.84;48.24;102118.91;4994168;28;20062;-66
2022/08/11 06:08:09;;;;;;;9.48;5.63;;;;;;;21.97;48.37;102112.41;4994620;28;20040;-66
2022/08/11 06:10:38;;;;;;;11.23;5.93;;;;;;;22.12;47.82;102113.97;4994646;28;20102;-66
2022/08/11 06:13:05;;;;;;;12.05;5.93;;;;;;;22.28;47.81;102117.28;4994321;28;20022;-66
2022/08/11 06:15:37;;;;;;;9.25;6.00;;;;;;;22.38;47.64;102120.69;4994118;28;20034;-66
2022/08/11 06:18:03;;;;;;;;;;;;;;;22.63;47.07;102126.53;4994741;28;20030;-67
2022/08/11 06:20:35;;;;;;;10.57;5.70;;;;;;;22.65;46.44;102121.97;4976835;28;19922;-66
2022/08/11 06:23:03;;;;;;;11.15;5.65;;;;;;;22.77;46.14;102119.06;4994459;28;20077;-66
2022/08/11 06:25:34;;;;;;;13.48;5.72;;;;;;;22.84;46.21;102111.75;4994485;28;20511;-66
2022/08/11 06:28:02;;;;;;;11.75;5.65;;;;;;;23.04;45.81;102117.66;4993960;28;20412;-66
2022/08/11 06:30:47;;;;;;;12.07;5.60;;;;;;;23.21;45.19;102126.28;4993996;28;20354;-66
2022/08/11 06:33:32;;;;;;;13.95;5.60;;;;;;;23.37;45.09;102117.84;4993910;28;20034;-66
2022/08/11 06:36:14;;;;;;;8.60;5.20;;;;;;;23.58;44.74;102125.44;4993884;28;20026;-66
2022/08/11 06:38:58;;;;;;;;;;;;;;;23.83;44.55;102122.22;4994320;28;20042;-66
2022/08/11 06:41:38;;;;;;;9.25;5.03;;;;;;;23.96;44.27;102124.56;4994407;28;20012;-66
2022/08/11 06:44:12;;;;;;;8.57;5.60;;;;;;;24.06;43.02;102117.13;4993797;28;20081;-66
2022/08/11 06:46:40;;;;;;;9.82;5.50;;;;;;;24.12;43.86;102122.38;4993643;28;20022;-66
2022/08/11 06:52:16;;;;;;;10.32;5.68;;;;;;;24.37;43.04;102129.88;4994115;28;20041;-66
2022/08/11 06:54:55;;;;;;;10.43;5.32;;;;;;;24.52;42.58;102132.19;4979648;28;20039;-67
2022/08/11 07:03:09;;;;;;;7.05;5.53;;;;;;;25.06;41.44;102128.88;4993728;28;20189;-66
2022/08/11 07:05:44;;;;;;;10.38;6.85;;;;;;;25.26;40.90;102136.41;4978038;28;20027;-66
2022/08/11 07:17:25;;;;;;;7.55;4.80;;;;;;;25.94;39.32;102136.09;4994132;28;20041;-66
2022/08/11 07:31:12;;;;;;;8.45;4.78;;;;;;;26.91;36.63;102121.91;4997806;28;20052;-66
2022/08/11 07:33:45;;;;;;;13.57;4.93;;;;;;;27.14;36.76;102126.47;4997342;28;20395;-66
2022/08/11 07:36:12;;;;;;;11.00;4.68;;;;;;;27.45;36.30;102118.94;4997216;28;20054;-66
2022/08/11 07:38:44;;;;;;;9.27;5.10;;;;;;;27.56;35.71;102133.91;4997115;28;20031;-66
2022/08/11 07:41:11;;;;;;;;;;;;;;;27.86;35.40;102127.25;4997716;28;20032;-66
2022/08/11 07:43:38;;;;;;;9.98;4.72;;;;;;;27.79;34.68;102120.28;4997315;28;19909;-66
2022/08/11 07:54:21;;;;;;;9.20;4.82;;;;;;;28.51;33.75;102130.84;4996932;28;20037;-67
2022/08/11 07:56:47;;;;;;;11.45;4.82;;;;;;;28.51;32.70;102133.56;4963371;28;20030;-67
2022/08/11 08:18:34;;;;;;;10.77;4.95;;;;;;;29.70;30.33;102116.28;4982084;28;20045;-66
2022/08/11 08:21:10;;;;;;;10.25;4.63;;;;;;;29.91;30.83;102117.06;4996619;28;20026;-66
2022/08/11 08:23:38;;;;;;;7.93;4.30;;;;;;;29.94;30.78;102122.38;4996507;28;20072;-66
2022/08/11 08:30:46;;;;;;;8.57;4.28;;;;;;;30.23;30.55;102118.16;4965667;28;20056;-67
2022/08/11 08:31:50;;;;;;;6.70;4.22;;;;;;;30.50;29.59;102115.00;4981653;28;20042;-66
2022/08/11 08:34:16;;;;;;;7.82;4.07;;;;;;;30.72;29.80;102128.38;4996219;28;20480;-66
2022/08/11 08:36:44;;;;;;;10.77;3.70;;;;;;;31.07;29.98;102121.88;4978688;28;20045;-66
2022/08/11 08:39:12;;;;;;;6.18;3.83;;;;;;;31.10;28.20;102121.72;4996039;28;20113;-67
2022/08/11 08:41:38;;;;;;;6.22;3.80;;;;;;;31.12;29.41;102119.78;4995968;28;20037;-66
2022/08/11 08:44:09;;;;;;;12.52;4.32;;;;;;;31.50;28.01;102116.78;4996142;28;20042;-66
2022/08/11 08:46:49;;;;;;;9.88;3.83;;;;;;;31.75;27.83;102115.38;4995902;28;20074;-67
2022/08/11 08:49:17;;;;;;;10.85;4.00;;;;;;;31.82;27.88;102117.66;4978507;28;20037;-67
2022/08/11 08:51:48;;;;;;;11.02;4.18;;;;;;;31.95;27.85;102112.38;4978354;28;20030;-67
2022/08/11 08:54:19;;;;;;;9.00;4.18;;;;;;;31.99;27.56;102119.44;4995765;28;20105;-67
2022/08/11 08:56:45;;;;;;;;;;;;;;;32.35;27.67;102112.72;4996314;28;20054;-66
2022/08/11 08:59:15;;;;;;;27.00;4.47;;;;;;;32.49;26.34;102111.88;4995697;28;20379;-66
2022/08/11 09:01:54;;;;;;;9.43;4.05;;;;;;;32.41;27.25;102107.75;4995844;28;20484;-67
2022/08/11 09:04:20;;;;;;;11.27;3.85;;;;;;;32.79;25.96;102111.84;4978497;28;20026;-66
2022/08/11 09:06:47;;;;;;;6.65;3.80;;;;;;;33.02;25.74;102108.56;4995458;28;20034;-66
2022/08/11 09:09:13;;;;;;;11.70;4.22;;;;;;;32.80;25.23;102111.72;4995708;28;20022;-66
2022/08/11 09:11:49;;;;;;;10.25;4.00;;;;;;;32.82;25.55;102097.97;4995500;28;20050;-66
2022/08/11 09:17:22;;;;;;;7.07;3.80;;;;;;;33.04;24.60;102113.94;4995590;28;20452;-67
2022/08/11 09:20:10;;;;;;;8.45;3.70;;;;;;;33.06;24.76;102110.13;4995255;28;20053;-66
2022/08/11 09:28:13;;;;;;;8.85;4.00;;;;;;;33.52;24.23;102107.16;4995376;28;20057;-66
2022/08/11 09:30:41;;;;;;;11.23;3.47;;;;;;;33.43;23.41;102110.47;4995329;28;20035;-67
2022/08/11 09:33:10;;;;;;;7.50;3.35;;;;;;;33.47;23.62;102100.22;4995185;28;20026;-67
2022/08/11 09:35:37;;;;;;;9.50;3.58;;;;;;;33.83;22.75;102097.78;4994999;28;20117;-67
2022/08/11 09:40:51;;;;;;;8.30;3.30;;;;;;;34.21;22.41;102091.53;4994863;28;20045;-67
2022/08/11 09:46:04;;;;;;;11.38;3.50;;;;;;;34.23;22.09;102092.31;4994964;28;20098;-67
2022/08/11 09:48:39;;;;;;;8.90;3.60;;;;;;;34.09;22.37;102095.13;4994856;28;20049;-67
2022/08/11 09:51:07;;;;;;;8.27;3.38;;;;;;;34.27;21.74;102090.25;4994824;28;20077;-67
2022/08/11 09:53:38;;;;;;;7.55;3.70;;;;;;;34.24;22.47;102090.44;4994631;28;20056;-67
2022/08/11 09:58:52;;;;;;;6.15;3.35;;;;;;;34.11;22.22;102083.06;4994932;28;20097;-67
2022/08/11 10:01:27;;;;;;;8.90;3.40;;;;;;;34.29;21.52;102083.63;4994712;28;20384;-65
2022/08/11 10:03:59;;;;;;;5.18;3.33;;;;;;;34.34;21.12;102075.94;4994471;28;20460;-65
2022/08/11 10:09:19;;;;;;;10.55;3.22;;;;;;;34.84;21.53;102068.75;4994540;28;20125;-67
2022/08/11 10:11:46;;;;;;;5.93;3.10;;;;;;;35.10;21.55;102075.13;4994642;28;20023;-67
2022/08/11 10:16:57;;;;;;;9.55;3.70;;;;;;;35.40;20.18;102081.22;4994430;28;20503;-67
2022/08/11 10:19:23;;;;;;;10.60;3.40;;;;;;;35.39;20.09;102069.34;4994244;28;20022;-67
2022/08/11 10:27:27;;;;;;;8.75;3.28;;;;;;;35.59;20.25;102063.25;4993878;28;20108;-67
2022/08/11 10:35:25;;;;;;;7.68;3.30;;;;;;;36.01;19.04;102057.31;4994010;28;20061;-67
2022/08/11 10:37:52;;;;;;;8.30;3.30;;;;;;;35.82;19.74;102057.84;4993734;28;20377;-67
2022/08/11 10:40:22;;;;;;;9.93;3.60;;;;;;;35.65;19.48;102059.16;4994199;28;20018;-67
2022/08/11 10:43:11;;;;;;;8.88;3.40;;;;;;;35.74;19.57;102052.06;4994168;28;20037;-67
2022/08/11 10:48:25;;;;;;;9.40;3.38;;;;;;;35.98;19.02;102044.72;4993938;28;20037;-67
2022/08/11 10:59:25;;;;;;;9.15;3.15;;;;;;;36.86;17.65;102042.22;4896235;29;20047;-68
2022/08/11 11:01:52;;;;;;;7.43;3.50;;;;;;;37.10;17.74;102038.50;4896066;29;20043;-67
2022/08/11 11:04:26;;;;;;;8.90;3.25;;;;;;;36.80;17.90;102031.72;4927420;28;20046;-67
2022/08/11 11:07:02;;;;;;;12.88;3.50;;;;;;;36.69;17.90;102034.47;4993787;28;20396;-67
2022/08/11 11:09:40;;;;;;;8.02;3.40;;;;;;;36.82;18.75;102028.84;4993458;28;20023;-67
2022/08/11 11:18:03;;;;;;;7.75;3.20;;;;;;;37.25;17.14;102019.78;4993536;28;20056;-67
2022/08/11 11:20:37;;;;;;;7.90;3.03;;;;;;;37.27;17.89;102015.03;4993684;28;20034;-67
2022/08/11 11:23:13;;;;;;;6.70;3.05;;;;;;;37.40;17.42;102014.91;4993471;28;20448;-67
2022/08/11 11:26:05;;;;;;;6.60;3.20;;;;;;;37.42;17.00;102010.13;4993477;28;20033;-67
2022/08/11 11:29:19;;;;;;;8.15;3.28;;;;;;;37.79;16.20;102010.63;4993409;28;20131;-67
2022/08/11 11:32:26;;;;;;;11.02;2.90;;;;;;;37.92;16.70;102022.38;4993361;28;20472;-68
2022/08/11 11:35:16;;;;;;;5.43;3.17;;;;;;;37.76;16.26;102013.63;4993441;28;20029;-68
2022/08/11 11:37:45;;;;;;;8.70;3.20;;;;;;;37.95;15.97;102005.56;4993417;28;20041;-65
2022/08/11 11:40:14;;;;;;;6.38;3.20;;;;;;;37.56;16.67;101996.94;4993314;28;20026;-66
2022/08/11 11:42:44;;;;;;;6.75;3.25;;;;;;;37.37;16.45;102004.97;4993258;28;20078;-65
2022/08/11 11:45:14;;;;;;;4.95;3.05;;;;;;;37.42;16.62;102002.72;4975602;28;20045;-65
2022/08/11 11:47:39;;;;;;;5.20;3.22;;;;;;;37.42;16.76;101990.84;4993558;28;20114;-68
2022/08/11 11:50:07;;;;;;;7.13;3.42;;;;;;;37.67;16.14;101998.75;4993395;28;20120;-65
2022/08/11 11:52:34;;;;;;;5.22;3.05;;;;;;;37.83;16.56;101992.78;4993183;28;20034;-65
2022/08/11 11:55:00;;;;;;;12.27;3.60;;;;;;;37.92;16.31;101992.03;4993147;28;20186;-65
2022/08/11 12:02:59;;;;;;;7.82;3.10;;;;;;;38.54;15.64;101982.81;4993598;28;20058;-65
2022/08/11 12:05:26;;;;;;;9.45;3.20;;;;;;;38.50;15.39;101989.66;4996180;28;20025;-66
2022/08/11 12:10:38;;;;;;;5.07;3.33;;;;;;;38.75;15.57;101979.13;4996824;28;20078;-65
2022/08/11 12:15:50;;;;;;;6.97;3.10;;;;;;;38.67;14.41;101981.69;4996837;28;20103;-65
2022/08/11 12:18:17;;;;;;;4.65;2.70;;;;;;;38.63;15.66;101977.47;4996453;28;20053;-65
2022/08/11 12:20:44;;;;;;;8.20;3.20;;;;;;;38.58;13.59;101975.13;4979277;28;20468;-65
2022/08/11 12:28:42;;;;;;;4.18;2.83;;;;;;;37.56;13.87;101965.69;4996241;28;20056;-66
2022/08/11 12:31:11;;;;;;;7.80;2.90;;;;;;;38.01;13.71;101963.59;4996362;28;20061;-66
2022/08/11 12:33:39;;;;;;;8.30;3.30;;;;;;;38.19;14.72;101961.09;4996285;28;20404;-66
2022/08/11 12:36:08;;;;;;;9.07;3.30;;;;;;;38.40;14.33;101958.34;4996253;28;20029;-66
2022/08/11 12:38:35;;;;;;;8.05;3.08;;;;;;;38.54;14.50;101946.91;4996259;28;20496;-66
2022/08/11 12:46:34;;;;;;;8.88;3.28;;;;;;;39.23;13.86;101935.09;4996360;28;20132;-66
2022/08/11 12:52:00;;;;;;;7.90;3.10;;;;;;;38.85;14.04;101932.22;4996327;28;20185;-66
2022/08/11 12:54:48;;;;;;;6.30;3.00;;;;;;;38.91;14.08;101926.13;4995850;28;20035;-66
2022/08/11 13:05:46;;;;;;;7.97;3.10;;;;;;;38.67;14.28;101920.91;4995931;28;20053;-66
2022/08/11 13:08:13;;;;;;;4.80;2.78;;;;;;;38.66;14.45;101916.41;4994188;28;20407;-66
2022/08/11 13:13:25;;;;;;;5.65;2.90;;;;;;;38.45;13.91;101914.59;4995791;28;20098;-66
2022/08/11 13:15:50;;;;;;;8.60;3.10;;;;;;;38.33;14.53;101911.09;4994320;28;20058;-66
2022/08/11 13:18:21;;;;;;;11.52;3.20;;;;;;;38.13;14.73;101909.19;4995545;28;20468;-66
2022/08/11 13:20:48;;;;;;;8.13;3.20;;;;;;;38.48;14.59;101900.50;4995334;28;20476;-66
2022/08/11 13:23:15;;;;;;;6.15;3.10;;;;;;;38.25;14.68;101899.81;4995279;28;20037;-66
2022/08/11 13:25:42;;;;;;;5.63;3.10;;;;;;;38.56;14.60;101897.06;4995325;28;20030;-66
2022/08/11 13:28:09;;;;;;;6.55;2.90;;;;;;;38.29;14.82;101897.66;4994997;28;20125;-66
2022/08/11 13:33:20;;;;;;;8.65;3.00;;;;;;;37.89;15.15;101890.19;4995320;28;20428;-66
2022/08/11 13:35:49;;;;;;;5.68;3.30;;;;;;;37.81;14.83;101892.69;4995125;28;20030;-66
2022/08/11 13:38:17;;;;;;;7.88;3.20;;;;;;;37.99;14.69;101893.88;4995036;28;20034;-66
2022/08/11 13:40:44;;;;;;;7.35;3.08;;;;;;;37.84;14.53;101885.03;4995063;28;20031;-67
2022/08/11 13:43:09;;;;;;;7.85;3.42;;;;;;;37.88;14.96;101891.19;4995132;28;20039;-66
2022/08/11 13:45:37;;;;;;;6.95;3.20;;;;;;;37.59;14.98;101888.19;4994635;28;20045;-66
2022/08/11 13:48:07;;;;;;;6.20;3.08;;;;;;;37.55;14.81;101884.84;4994974;28;20042;-67
2022/08/11 13:53:22;;;;;;;6.25;3.05;;;;;;;37.62;14.97;101867.75;4994912;28;20098;-66
2022/08/11 13:55:48;;;;;;;6.15;2.83;;;;;;;37.70;14.95;101879.00;4994777;28;20041;-67
2022/08/11 13:58:15;;;;;;;7.28;3.15;;;;;;;37.59;14.33;101883.56;4994528;28;20042;-67
2022/08/11 14:00:45;;;;;;;5.95;3.10;;;;;;;37.50;14.78;101877.97;4994744;28;20034;-67
2022/08/11 14:03:12;;;;;;;7.88;3.33;;;;;;;37.50;14.45;101870.56;4994777;28;20031;-67
2022/08/11 14:05:51;;;;;;;6.80;3.03;;;;;;;37.82;14.47;101872.41;4994624;28;20030;-67
2022/08/11 14:08:25;;;;;;;8.77;3.10;;;;;;;37.70;14.50;101867.97;4994424;28;20026;-67
2022/08/11 14:13:40;;;;;;;6.75;2.85;;;;;;;38.06;13.85;101858.31;4994774;28;20086;-67
2022/08/11 14:16:14;;;;;;;5.55;2.95;;;;;;;37.86;14.50;101853.69;4994188;28;20531;-67
2022/08/11 14:18:45;;;;;;;6.70;3.03;;;;;;;37.80;14.78;101853.19;4994376;28;20061;-66
2022/08/11 14:23:59;;;;;;;5.57;3.20;;;;;;;37.62;14.24;101860.38;4994226;28;20123;-67
2022/08/11 14:26:26;;;;;;;6.65;3.40;;;;;;;37.51;15.55;101850.25;4976560;28;20034;-67
2022/08/11 14:28:54;;;;;;;7.18;3.28;;;;;;;37.38;14.71;101860.56;4993766;28;20515;-67
2022/08/11 14:31:22;;;;;;;6.03;3.20;;;;;;;37.29;14.43;101859.50;4994118;28;20018;-67
2022/08/11 14:33:48;;;;;;;8.73;3.20;;;;;;;37.31;14.67;101856.63;4993918;28;20117;-67
2022/08/11 14:36:14;;;;;;;8.38;3.15;;;;;;;37.30;14.74;101852.09;4994188;28;20503;-67
2022/08/11 14:38:41;;;;;;;8.27;3.10;;;;;;;37.33;15.13;101847.19;4976465;28;20058;-67
2022/08/11 14:49:27;;;;;;;9.35;3.15;;;;;;;37.23;14.03;101843.50;4994229;28;20046;-67
2022/08/11 14:51:53;;;;;;;7.65;2.90;;;;;;;37.10;14.51;101840.94;4993762;28;20022;-67
2022/08/11 14:57:08;;;;;;;5.43;3.13;;;;;;;36.51;14.54;101843.22;4993836;28;20097;-67
2022/08/11 14:59:35;;;;;;;5.15;2.90;;;;;;;36.48;15.53;101835.19;4993527;28;20037;-67
2022/08/11 15:04:48;;;;;;;7.47;2.80;;;;;;;36.61;16.20;101828.53;4993590;28;20555;-67
2022/08/11 15:07:14;;;;;;;6.82;2.90;;;;;;;36.47;15.50;101822.44;4993773;28;20027;-67
2022/08/11 15:09:42;;;;;;;6.75;3.00;;;;;;;36.33;15.56;101816.19;4993658;28;20065;-66
2022/08/11 15:12:15;;;;;;;6.22;2.97;;;;;;;36.36;15.00;101823.28;4993491;28;20022;-67
2022/08/11 15:17:32;;;;;;;6.75;3.30;;;;;;;36.45;15.05;101814.31;4993442;28;20077;-66
2022/08/11 15:25:30;;;;;;;7.13;3.20;;;;;;;36.34;15.50;101808.78;4993523;28;20038;-66
2022/08/11 15:39:07;;;;;;;9.95;2.90;;;;;;;36.19;15.72;101788.94;4994370;28;20507;-68
2022/08/11 15:47:21;;;;;;;4.10;2.80;;;;;;;35.59;15.97;101787.41;4997157;28;20044;-68
2022/08/11 15:49:52;;;;;;;5.22;2.83;;;;;;;35.50;15.84;101782.63;4997280;28;20097;-67
2022/08/11 15:52:21;;;;;;;8.30;2.67;;;;;;;35.24;16.35;101788.28;4997198;28;20030;-68
2022/08/11 15:54:48;;;;;;;10.25;3.58;;;;;;;35.14;16.57;101781.75;4997140;28;20026;-68
2022/08/11 16:05:21;;;;;;;5.73;3.00;;;;;;;35.22;16.65;101781.16;4996724;28;20492;-67
2022/08/11 16:07:50;;;;;;;7.57;3.10;;;;;;;35.25;16.73;101776.31;4996877;28;20293;-67
2022/08/11 16:10:20;;;;;;;7.03;3.08;;;;;;;35.12;16.79;101775.53;4996637;28;20077;-67
2022/08/11 16:16:13;;;;;;;4.40;2.70;;;;;;;35.15;16.80;101778.00;4996753;28;20073;-67
2022/08/11 16:18:47;;;;;;;5.38;2.80;;;;;;;35.06;16.88;101773.25;4996602;28;20034;-67
2022/08/11 16:21:16;;;;;;;6.13;2.80;;;;;;;34.89;17.36;101767.16;4996487;28;20065;-67
2022/08/11 16:23:45;;;;;;;6.32;2.90;;;;;;;34.74;17.27;101762.88;4996488;28;20036;-67
2022/08/11 16:26:12;;;;;;;5.72;2.60;;;;;;;34.95;16.97;101762.16;4996396;28;20038;-67
2022/08/11 16:28:39;;;;;;;5.55;2.78;;;;;;;34.91;16.90;101758.81;4996121;28;20462;-67
2022/08/11 16:31:10;;;;;;;5.20;2.78;;;;;;;34.59;17.39;101761.28;4996212;28;20034;-67
2022/08/11 16:33:39;;;;;;;5.80;2.78;;;;;;;34.62;17.25;101761.06;4996356;28;20133;-67
2022/08/11 16:38:58;;;;;;;8.43;2.70;;;;;;;34.30;17.35;101761.56;4996391;28;20097;-67
2022/08/11 16:47:00;;;;;;;6.65;2.95;;;;;;;34.00;17.56;101758.38;4996124;28;20057;-67
2022/08/11 16:49:31;;;;;;;4.72;2.90;;;;;;;33.79;17.66;101755.28;4995853;28;20022;-67
2022/08/11 16:51:56;;;;;;;7.03;2.85;;;;;;;33.79;18.67;101750.72;4996009;28;20475;-67
2022/08/11 16:54:22;;;;;;;6.38;3.05;;;;;;;33.74;18.59;101755.63;4996027;28;20030;-67
2022/08/11 16:56:52;;;;;;;6.63;2.85;;;;;;;33.60;19.99;101744.81;4995769;28;20469;-67
2022/08/11 16:59:32;;;;;;;4.93;2.70;;;;;;;33.50;18.99;101747.34;4978444;28;20045;-67
2022/08/11 17:02:06;;;;;;;7.85;2.80;;;;;;;33.58;18.54;101742.19;4995805;28;20035;-67
2022/08/11 17:13:07;;;;;;;5.57;2.70;;;;;;;33.48;18.98;101741.06;4995963;28;20133;-67